sensor_id;sensor_type;location;lat;lon;timestamp;temperature;humidity
32215;DHT22;18708;53.124;23.190;2022-10-16T00:00:35;13.20;99.90
32215;DHT22;18708;53.124;23.190;2022-10-16T00:03:02;13.10;99.90
32215;DHT22;18708;53.124;23.190;2022-10-16T00:05:28;13.10;99.90
32215;DHT22;18708;53.124;23.190;2022-10-16T00:07:54;13.20;99.90
32215;DHT22;18708;53.124;23.190;2022-10-16T00:10:20;13.20;99.90
32215;DHT22;18708;53.124;23.190;2022-10-16T00:12:45;13.20;99.90
32215;DHT22;18708;53.124;23.190;2022-10-16T00:15:11;13.20;99.90
32215;DHT22;18708;53.124;23.190;2022-10-16T00:17:37;13.20;99.90
32215;DHT22;18708;53.124;23.190;2022-10-16T00:20:03;13.10;99.90
32215;DHT22;18708;53.124;23.190;2022-10-16T00:22:29;13.20;99.90
32215;DHT22;18708;53.124;23.190;2022-10-16T00:24:55;13.10;99.90
32215;DHT22;18708;53.124;23.190;2022-10-16T00:27:20;13.10;99.90
32215;DHT22;18708;53.124;23.190;2022-10-16T00:29:50;13.20;99.90
32215;DHT22;18708;53.124;23.190;2022-10-16T00:32:17;13.20;99.90
32215;DHT22;18708;53.124;23.190;2022-10-16T00:34:42;13.10;99.90
32215;DHT22;18708;53.124;23.190;2022-10-16T00:37:08;13.10;99.90
32215;DHT22;18708;53.124;23.190;2022-10-16T00:39:34;13.10;99.90
32215;DHT22;18708;53.124;23.190;2022-10-16T00:41:59;13.10;99.90
32215;DHT22;18708;53.124;23.190;2022-10-16T00:44:54;13.10;99.90
32215;DHT22;18708;53.124;23.190;2022-10-16T00:47:33;13.10;99.90
32215;DHT22;18708;53.124;23.190;2022-10-16T00:52:32;13.10;99.90
32215;DHT22;18708;53.124;23.190;2022-10-16T00:54:58;13.10;99.90
32215;DHT22;18708;53.124;23.190;2022-10-16T00:57:25;13.10;99.90
32215;DHT22;18708;53.124;23.190;2022-10-16T00:59:51;13.10;99.90
32215;DHT22;18708;53.124;23.190;2022-10-16T01:02:17;13.10;99.90
32215;DHT22;18708;53.124;23.190;2022-10-16T01:04:48;13.10;99.90
32215;DHT22;18708;53.124;23.190;2022-10-16T01:15:10;13.00;99.90
32215;DHT22;18708;53.124;23.190;2022-10-16T01:20:23;13.00;99.90
32215;DHT22;18708;53.124;23.190;2022-10-16T01:29:09;13.00;99.90
32215;DHT22;18708;53.124;23.190;2022-10-16T01:31:45;13.00;99.90
32215;DHT22;18708;53.124;23.190;2022-10-16T01:34:20;13.00;99.90
32215;DHT22;18708;53.124;23.190;2022-10-16T01:36:53;13.00;99.90
32215;DHT22;18708;53.124;23.190;2022-10-16T01:39:22;12.90;99.90
32215;DHT22;18708;53.124;23.190;2022-10-16T01:42:11;12.90;99.90
32215;DHT22;18708;53.124;23.190;2022-10-16T01:44:39;12.90;99.90
32215;DHT22;18708;53.124;23.190;2022-10-16T01:47:09;12.90;99.90
32215;DHT22;18708;53.124;23.190;2022-10-16T01:49:37;12.90;99.90
32215;DHT22;18708;53.124;23.190;2022-10-16T01:52:08;12.90;99.90
32215;DHT22;18708;53.124;23.190;2022-10-16T01:54:37;12.90;99.90
32215;DHT22;18708;53.124;23.190;2022-10-16T01:57:05;12.90;99.90
32215;DHT22;18708;53.124;23.190;2022-10-16T01:59:34;12.90;99.90
32215;DHT22;18708;53.124;23.190;2022-10-16T02:02:05;12.90;99.90
32215;DHT22;18708;53.124;23.190;2022-10-16T02:04:36;12.90;99.90
32215;DHT22;18708;53.124;23.190;2022-10-16T02:07:03;12.90;99.90
32215;DHT22;18708;53.124;23.190;2022-10-16T02:09:30;12.90;99.90
32215;DHT22;18708;53.124;23.190;2022-10-16T02:11:57;12.80;99.90
32215;DHT22;18708;53.124;23.190;2022-10-16T02:14:25;12.80;99.90
32215;DHT22;18708;53.124;23.190;2022-10-16T02:16:51;12.90;99.90
32215;DHT22;18708;53.124;23.190;2022-10-16T02:19:17;12.90;99.90
32215;DHT22;18708;53.124;23.190;2022-10-16T02:21:54;12.80;99.90
32215;DHT22;18708;53.124;23.190;2022-10-16T02:30:11;12.70;99.90
32215;DHT22;18708;53.124;23.190;2022-10-16T02:32:40;12.70;99.90
32215;DHT22;18708;53.124;23.190;2022-10-16T02:35:08;12.70;99.90
32215;DHT22;18708;53.124;23.190;2022-10-16T02:37:35;12.70;99.90
32215;DHT22;18708;53.124;23.190;2022-10-16T02:40:01;12.60;99.90
32215;DHT22;18708;53.124;23.190;2022-10-16T02:42:38;12.60;99.90
32215;DHT22;18708;53.124;23.190;2022-10-16T02:45:06;12.50;99.90
32215;DHT22;18708;53.124;23.190;2022-10-16T02:47:32;12.50;99.90
32215;DHT22;18708;53.124;23.190;2022-10-16T02:49:58;12.40;99.90
32215;DHT22;18708;53.124;23.190;2022-10-16T02:52:24;12.30;99.90
32215;DHT22;18708;53.124;23.190;2022-10-16T02:54:49;12.30;99.90
32215;DHT22;18708;53.124;23.190;2022-10-16T02:57:15;12.20;99.90
32215;DHT22;18708;53.124;23.190;2022-10-16T02:59:41;12.20;99.90
32215;DHT22;18708;53.124;23.190;2022-10-16T03:02:07;12.10;99.90
32215;DHT22;18708;53.124;23.190;2022-10-16T03:04:33;12.00;99.90
32215;DHT22;18708;53.124;23.190;2022-10-16T03:06:58;12.00;99.90
32215;DHT22;18708;53.124;23.190;2022-10-16T03:09:24;12.00;99.90
32215;DHT22;18708;53.124;23.190;2022-10-16T03:11:50;11.90;99.90
32215;DHT22;18708;53.124;23.190;2022-10-16T03:14:15;11.80;99.90
32215;DHT22;18708;53.124;23.190;2022-10-16T03:16:41;11.80;99.90
32215;DHT22;18708;53.124;23.190;2022-10-16T03:19:06;11.80;99.90
32215;DHT22;18708;53.124;23.190;2022-10-16T03:21:32;11.80;99.90
32215;DHT22;18708;53.124;23.190;2022-10-16T03:23:58;11.70;99.90
32215;DHT22;18708;53.124;23.190;2022-10-16T03:26:23;11.70;99.90
32215;DHT22;18708;53.124;23.190;2022-10-16T03:28:49;11.70;99.90
32215;DHT22;18708;53.124;23.190;2022-10-16T03:31:15;11.70;99.90
32215;DHT22;18708;53.124;23.190;2022-10-16T03:33:40;11.70;99.90
32215;DHT22;18708;53.124;23.190;2022-10-16T03:36:06;11.70;99.90
32215;DHT22;18708;53.124;23.190;2022-10-16T03:38:32;11.70;99.90
32215;DHT22;18708;53.124;23.190;2022-10-16T03:40:57;11.70;99.90
32215;DHT22;18708;53.124;23.190;2022-10-16T03:43:23;11.70;99.90
32215;DHT22;18708;53.124;23.190;2022-10-16T03:45:50;11.60;99.90
32215;DHT22;18708;53.124;23.190;2022-10-16T03:48:17;11.60;99.90
32215;DHT22;18708;53.124;23.190;2022-10-16T03:50:43;11.60;99.90
32215;DHT22;18708;53.124;23.190;2022-10-16T03:53:09;11.60;99.90
32215;DHT22;18708;53.124;23.190;2022-10-16T03:55:35;11.70;99.90
32215;DHT22;18708;53.124;23.190;2022-10-16T03:58:01;11.70;99.90
32215;DHT22;18708;53.124;23.190;2022-10-16T04:00:26;11.60;99.90
32215;DHT22;18708;53.124;23.190;2022-10-16T04:02:52;11.60;99.90
32215;DHT22;18708;53.124;23.190;2022-10-16T04:05:18;11.60;99.90
32215;DHT22;18708;53.124;23.190;2022-10-16T04:07:44;11.60;99.90
32215;DHT22;18708;53.124;23.190;2022-10-16T04:10:09;11.60;99.90
32215;DHT22;18708;53.124;23.190;2022-10-16T04:12:35;11.60;99.90
32215;DHT22;18708;53.124;23.190;2022-10-16T04:15:01;11.60;99.90
32215;DHT22;18708;53.124;23.190;2022-10-16T04:17:27;11.60;99.90
32215;DHT22;18708;53.124;23.190;2022-10-16T04:19:52;11.60;99.90
32215;DHT22;18708;53.124;23.190;2022-10-16T04:22:18;11.60;99.90
32215;DHT22;18708;53.124;23.190;2022-10-16T04:24:44;11.60;99.90
32215;DHT22;18708;53.124;23.190;2022-10-16T04:27:09;11.60;99.90
32215;DHT22;18708;53.124;23.190;2022-10-16T04:29:35;11.60;99.90
32215;DHT22;18708;53.124;23.190;2022-10-16T04:32:00;11.60;99.90
32215;DHT22;18708;53.124;23.190;2022-10-16T04:34:26;11.50;99.90
32215;DHT22;18708;53.124;23.190;2022-10-16T04:36:52;11.50;99.90
32215;DHT22;18708;53.124;23.190;2022-10-16T04:39:17;11.50;99.90
32215;DHT22;18708;53.124;23.190;2022-10-16T04:41:43;11.60;99.90
32215;DHT22;18708;53.124;23.190;2022-10-16T04:44:09;11.60;99.90
32215;DHT22;18708;53.124;23.190;2022-10-16T04:46:34;11.60;99.90
32215;DHT22;18708;53.124;23.190;2022-10-16T04:49:00;11.60;99.90
32215;DHT22;18708;53.124;23.190;2022-10-16T04:51:26;11.50;99.90
32215;DHT22;18708;53.124;23.190;2022-10-16T04:53:53;11.50;99.90
32215;DHT22;18708;53.124;23.190;2022-10-16T04:56:20;11.50;99.90
32215;DHT22;18708;53.124;23.190;2022-10-16T04:58:46;11.50;99.90
32215;DHT22;18708;53.124;23.190;2022-10-16T05:01:13;11.50;99.90
32215;DHT22;18708;53.124;23.190;2022-10-16T05:03:38;11.50;99.90
32215;DHT22;18708;53.124;23.190;2022-10-16T05:06:07;11.50;99.90
32215;DHT22;18708;53.124;23.190;2022-10-16T05:08:33;11.50;99.90
32215;DHT22;18708;53.124;23.190;2022-10-16T05:10:59;11.60;99.90
32215;DHT22;18708;53.124;23.190;2022-10-16T05:13:25;11.60;99.90
32215;DHT22;18708;53.124;23.190;2022-10-16T05:15:51;11.60;99.90
32215;DHT22;18708;53.124;23.190;2022-10-16T05:18:17;11.60;99.90
32215;DHT22;18708;53.124;23.190;2022-10-16T05:20:42;11.50;99.90
32215;DHT22;18708;53.124;23.190;2022-10-16T05:23:08;11.50;99.90
32215;DHT22;18708;53.124;23.190;2022-10-16T05:25:36;11.50;99.90
32215;DHT22;18708;53.124;23.190;2022-10-16T05:28:02;11.50;99.90
32215;DHT22;18708;53.124;23.190;2022-10-16T05:30:27;11.50;99.90
32215;DHT22;18708;53.124;23.190;2022-10-16T05:32:53;11.50;99.90
32215;DHT22;18708;53.124;23.190;2022-10-16T05:35:19;11.50;99.90
32215;DHT22;18708;53.124;23.190;2022-10-16T05:37:45;11.50;99.90
32215;DHT22;18708;53.124;23.190;2022-10-16T05:40:11;11.50;99.90
32215;DHT22;18708;53.124;23.190;2022-10-16T05:42:38;11.50;99.90
32215;DHT22;18708;53.124;23.190;2022-10-16T05:45:05;11.50;99.90
32215;DHT22;18708;53.124;23.190;2022-10-16T05:47:31;11.60;99.90
32215;DHT22;18708;53.124;23.190;2022-10-16T05:49:57;11.60;99.90
32215;DHT22;18708;53.124;23.190;2022-10-16T05:52:23;11.60;99.90
32215;DHT22;18708;53.124;23.190;2022-10-16T05:54:48;11.60;99.90
32215;DHT22;18708;53.124;23.190;2022-10-16T05:57:14;11.60;99.90
32215;DHT22;18708;53.124;23.190;2022-10-16T05:59:40;11.70;99.90
32215;DHT22;18708;53.124;23.190;2022-10-16T06:02:05;11.70;99.90
32215;DHT22;18708;53.124;23.190;2022-10-16T06:04:31;11.70;99.90
32215;DHT22;18708;53.124;23.190;2022-10-16T06:07:00;11.80;99.90
32215;DHT22;18708;53.124;23.190;2022-10-16T06:09:26;11.80;99.90
32215;DHT22;18708;53.124;23.190;2022-10-16T06:11:51;11.90;99.90
32215;DHT22;18708;53.124;23.190;2022-10-16T06:14:17;11.90;99.90
32215;DHT22;18708;53.124;23.190;2022-10-16T06:16:43;11.90;99.90
32215;DHT22;18708;53.124;23.190;2022-10-16T06:19:08;12.00;99.90
32215;DHT22;18708;53.124;23.190;2022-10-16T06:21:34;12.10;99.90
32215;DHT22;18708;53.124;23.190;2022-10-16T06:24:00;12.20;99.90
32215;DHT22;18708;53.124;23.190;2022-10-16T06:26:28;12.50;99.90
32215;DHT22;18708;53.124;23.190;2022-10-16T06:28:56;12.70;99.90
32215;DHT22;18708;53.124;23.190;2022-10-16T06:31:23;12.90;99.90
32215;DHT22;18708;53.124;23.190;2022-10-16T06:33:53;12.90;99.90
32215;DHT22;18708;53.124;23.190;2022-10-16T06:36:19;12.80;99.90
32215;DHT22;18708;53.124;23.190;2022-10-16T06:38:45;12.80;99.90
32215;DHT22;18708;53.124;23.190;2022-10-16T06:41:13;12.80;99.90
32215;DHT22;18708;53.124;23.190;2022-10-16T06:43:39;12.80;99.90
32215;DHT22;18708;53.124;23.190;2022-10-16T06:46:06;12.60;99.90
32215;DHT22;18708;53.124;23.190;2022-10-16T06:48:35;12.60;99.90
32215;DHT22;18708;53.124;23.190;2022-10-16T06:51:11;12.50;99.90
32215;DHT22;18708;53.124;23.190;2022-10-16T06:53:41;12.50;99.90
32215;DHT22;18708;53.124;23.190;2022-10-16T06:56:15;12.50;99.90
32215;DHT22;18708;53.124;23.190;2022-10-16T06:58:42;12.50;99.90
32215;DHT22;18708;53.124;23.190;2022-10-16T07:01:08;12.30;99.90
32215;DHT22;18708;53.124;23.190;2022-10-16T07:03:39;12.30;99.90
32215;DHT22;18708;53.124;23.190;2022-10-16T07:06:06;12.30;99.90
32215;DHT22;18708;53.124;23.190;2022-10-16T07:08:33;12.30;99.90
32215;DHT22;18708;53.124;23.190;2022-10-16T07:11:03;12.20;99.90
32215;DHT22;18708;53.124;23.190;2022-10-16T07:13:30;12.20;99.90
32215;DHT22;18708;53.124;23.190;2022-10-16T07:15:55;12.10;99.90
32215;DHT22;18708;53.124;23.190;2022-10-16T07:18:21;12.20;99.90
32215;DHT22;18708;53.124;23.190;2022-10-16T07:20:51;12.20;99.90
32215;DHT22;18708;53.124;23.190;2022-10-16T07:23:17;12.10;99.90
32215;DHT22;18708;53.124;23.190;2022-10-16T07:25:42;12.20;99.90
32215;DHT22;18708;53.124;23.190;2022-10-16T07:28:08;12.30;99.90
32215;DHT22;18708;53.124;23.190;2022-10-16T07:30:35;12.30;99.90
32215;DHT22;18708;53.124;23.190;2022-10-16T07:33:02;12.30;99.90
32215;DHT22;18708;53.124;23.190;2022-10-16T07:35:28;12.30;99.90
32215;DHT22;18708;53.124;23.190;2022-10-16T07:37:53;12.40;99.90
32215;DHT22;18708;53.124;23.190;2022-10-16T07:40:19;12.50;99.90
32215;DHT22;18708;53.124;23.190;2022-10-16T07:42:45;12.60;99.90
32215;DHT22;18708;53.124;23.190;2022-10-16T07:45:10;12.50;99.90
32215;DHT22;18708;53.124;23.190;2022-10-16T07:47:36;12.50;99.90
32215;DHT22;18708;53.124;23.190;2022-10-16T07:50:02;12.60;99.90
32215;DHT22;18708;53.124;23.190;2022-10-16T07:52:28;12.80;99.90
32215;DHT22;18708;53.124;23.190;2022-10-16T07:54:53;12.80;99.90
32215;DHT22;18708;53.124;23.190;2022-10-16T07:57:19;12.90;99.90
32215;DHT22;18708;53.124;23.190;2022-10-16T07:59:46;13.00;99.90
32215;DHT22;18708;53.124;23.190;2022-10-16T08:02:13;13.20;99.90
32215;DHT22;18708;53.124;23.190;2022-10-16T08:04:38;13.20;99.90
32215;DHT22;18708;53.124;23.190;2022-10-16T08:07:04;13.10;99.90
32215;DHT22;18708;53.124;23.190;2022-10-16T08:09:31;13.10;99.90
32215;DHT22;18708;53.124;23.190;2022-10-16T08:11:57;13.20;99.90
32215;DHT22;18708;53.124;23.190;2022-10-16T08:14:23;13.20;99.90
32215;DHT22;18708;53.124;23.190;2022-10-16T08:16:48;13.30;99.90
32215;DHT22;18708;53.124;23.190;2022-10-16T08:19:14;13.40;99.90
32215;DHT22;18708;53.124;23.190;2022-10-16T08:21:41;13.50;99.90
32215;DHT22;18708;53.124;23.190;2022-10-16T08:24:06;13.70;99.90
32215;DHT22;18708;53.124;23.190;2022-10-16T08:26:32;13.80;99.90
32215;DHT22;18708;53.124;23.190;2022-10-16T08:28:57;13.80;99.90
32215;DHT22;18708;53.124;23.190;2022-10-16T08:31:24;14.10;99.90
32215;DHT22;18708;53.124;23.190;2022-10-16T08:33:50;14.10;99.90
32215;DHT22;18708;53.124;23.190;2022-10-16T08:36:16;14.20;99.90
32215;DHT22;18708;53.124;23.190;2022-10-16T08:38:42;14.60;99.90
32215;DHT22;18708;53.124;23.190;2022-10-16T08:49:26;16.50;99.90
32215;DHT22;18708;53.124;23.190;2022-10-16T08:51:52;16.00;99.90
32215;DHT22;18708;53.124;23.190;2022-10-16T08:54:34;16.00;99.90
32215;DHT22;18708;53.124;23.190;2022-10-16T08:57:20;16.00;99.90
32215;DHT22;18708;53.124;23.190;2022-10-16T08:59:46;16.10;99.90
32215;DHT22;18708;53.124;23.190;2022-10-16T09:02:45;15.90;99.90
32215;DHT22;18708;53.124;23.190;2022-10-16T09:13:47;15.90;99.90
32215;DHT22;18708;53.124;23.190;2022-10-16T09:19:03;16.10;99.90
32215;DHT22;18708;53.124;23.190;2022-10-16T09:21:37;16.00;99.90
32215;DHT22;18708;53.124;23.190;2022-10-16T09:24:20;16.50;99.90
32215;DHT22;18708;53.124;23.190;2022-10-16T09:26:47;16.80;99.90
32215;DHT22;18708;53.124;23.190;2022-10-16T09:29:14;17.00;99.90
32215;DHT22;18708;53.124;23.190;2022-10-16T09:31:40;17.00;99.90
32215;DHT22;18708;53.124;23.190;2022-10-16T09:36:52;17.00;99.90
32215;DHT22;18708;53.124;23.190;2022-10-16T09:39:17;17.10;99.90
32215;DHT22;18708;53.124;23.190;2022-10-16T09:41:45;17.50;99.90
32215;DHT22;18708;53.124;23.190;2022-10-16T09:44:30;16.90;99.90
32215;DHT22;18708;53.124;23.190;2022-10-16T09:47:13;16.80;99.90
32215;DHT22;18708;53.124;23.190;2022-10-16T09:49:57;17.20;99.90
32215;DHT22;18708;53.124;23.190;2022-10-16T09:52:25;17.60;99.90
32215;DHT22;18708;53.124;23.190;2022-10-16T09:54:55;17.70;99.90
32215;DHT22;18708;53.124;23.190;2022-10-16T09:57:22;17.50;99.90
32215;DHT22;18708;53.124;23.190;2022-10-16T09:59:55;17.50;99.90
32215;DHT22;18708;53.124;23.190;2022-10-16T10:02:28;17.20;99.90
32215;DHT22;18708;53.124;23.190;2022-10-16T10:04:55;17.40;99.90
32215;DHT22;18708;53.124;23.190;2022-10-16T10:07:25;16.80;99.90
32215;DHT22;18708;53.124;23.190;2022-10-16T10:09:52;17.10;99.90
32215;DHT22;18708;53.124;23.190;2022-10-16T10:14:48;18.30;99.90
32215;DHT22;18708;53.124;23.190;2022-10-16T10:17:19;18.00;99.90
32215;DHT22;18708;53.124;23.190;2022-10-16T10:22:44;17.40;99.90
32215;DHT22;18708;53.124;23.190;2022-10-16T10:38:38;19.80;99.90
32215;DHT22;18708;53.124;23.190;2022-10-16T10:41:27;19.70;99.90
32215;DHT22;18708;53.124;23.190;2022-10-16T10:46:58;19.00;99.90
32215;DHT22;18708;53.124;23.190;2022-10-16T10:49:48;19.30;99.90
32215;DHT22;18708;53.124;23.190;2022-10-16T10:55:38;18.90;99.90
32215;DHT22;18708;53.124;23.190;2022-10-16T11:01:06;18.50;99.90
32215;DHT22;18708;53.124;23.190;2022-10-16T11:06:18;19.80;99.90
32215;DHT22;18708;53.124;23.190;2022-10-16T11:09:15;19.80;99.90
32215;DHT22;18708;53.124;23.190;2022-10-16T11:11:48;19.80;99.90
32215;DHT22;18708;53.124;23.190;2022-10-16T11:14:19;19.60;99.90
32215;DHT22;18708;53.124;23.190;2022-10-16T11:16:51;19.70;99.90
32215;DHT22;18708;53.124;23.190;2022-10-16T11:19:47;19.70;99.90
32215;DHT22;18708;53.124;23.190;2022-10-16T11:25:07;18.80;99.90
32215;DHT22;18708;53.124;23.190;2022-10-16T11:30:23;18.60;99.90
32215;DHT22;18708;53.124;23.190;2022-10-16T11:33:02;18.50;99.90
32215;DHT22;18708;53.124;23.190;2022-10-16T11:41:24;18.10;99.90
32215;DHT22;18708;53.124;23.190;2022-10-16T11:46:51;18.10;99.90
32215;DHT22;18708;53.124;23.190;2022-10-16T11:49:25;18.20;99.90
32215;DHT22;18708;53.124;23.190;2022-10-16T11:55:12;18.30;99.90
32215;DHT22;18708;53.124;23.190;2022-10-16T11:57:44;18.30;99.90
32215;DHT22;18708;53.124;23.190;2022-10-16T12:03:04;18.00;99.90
32215;DHT22;18708;53.124;23.190;2022-10-16T12:08:18;17.90;99.90
32215;DHT22;18708;53.124;23.190;2022-10-16T12:10:46;18.40;99.90
32215;DHT22;18708;53.124;23.190;2022-10-16T12:13:39;18.60;99.90
32215;DHT22;18708;53.124;23.190;2022-10-16T12:16:19;18.40;99.90
32215;DHT22;18708;53.124;23.190;2022-10-16T12:18:46;18.50;99.90
32215;DHT22;18708;53.124;23.190;2022-10-16T12:21:14;18.50;99.90
32215;DHT22;18708;53.124;23.190;2022-10-16T12:23:49;18.40;99.90
32215;DHT22;18708;53.124;23.190;2022-10-16T12:26:31;18.30;99.90
32215;DHT22;18708;53.124;23.190;2022-10-16T12:29:14;18.20;99.90
32215;DHT22;18708;53.124;23.190;2022-10-16T12:31:47;18.10;99.90
32215;DHT22;18708;53.124;23.190;2022-10-16T12:36:54;18.30;99.90
32215;DHT22;18708;53.124;23.190;2022-10-16T12:39:24;18.30;99.90
32215;DHT22;18708;53.124;23.190;2022-10-16T12:42:04;18.30;99.90
32215;DHT22;18708;53.124;23.190;2022-10-16T12:44:35;18.40;99.90
32215;DHT22;18708;53.124;23.190;2022-10-16T12:47:02;18.40;99.90
32215;DHT22;18708;53.124;23.190;2022-10-16T12:51:54;18.20;99.90
32215;DHT22;18708;53.124;23.190;2022-10-16T12:54:49;18.00;99.90
32215;DHT22;18708;53.124;23.190;2022-10-16T12:57:34;18.00;99.90
32215;DHT22;18708;53.124;23.190;2022-10-16T13:00:24;18.00;99.90
32215;DHT22;18708;53.124;23.190;2022-10-16T13:14:06;17.70;99.90
32215;DHT22;18708;53.124;23.190;2022-10-16T13:16:48;17.60;99.90
32215;DHT22;18708;53.124;23.190;2022-10-16T13:21:51;17.60;99.90
32215;DHT22;18708;53.124;23.190;2022-10-16T13:27:45;17.60;99.90
32215;DHT22;18708;53.124;23.190;2022-10-16T13:30:43;17.60;99.90
32215;DHT22;18708;53.124;23.190;2022-10-16T13:33:14;17.50;99.90
32215;DHT22;18708;53.124;23.190;2022-10-16T13:35:52;17.40;99.90
32215;DHT22;18708;53.124;23.190;2022-10-16T13:38:21;17.40;99.90
32215;DHT22;18708;53.124;23.190;2022-10-16T13:43:42;17.40;99.90
32215;DHT22;18708;53.124;23.190;2022-10-16T13:46:21;17.40;99.90
32215;DHT22;18708;53.124;23.190;2022-10-16T13:49:04;17.40;99.90
32215;DHT22;18708;53.124;23.190;2022-10-16T13:51:31;17.40;99.90
32215;DHT22;18708;53.124;23.190;2022-10-16T13:53:57;17.40;99.90
32215;DHT22;18708;53.124;23.190;2022-10-16T13:56:27;17.30;99.90
32215;DHT22;18708;53.124;23.190;2022-10-16T14:01:33;17.20;99.90
32215;DHT22;18708;53.124;23.190;2022-10-16T14:04:09;17.20;99.90
32215;DHT22;18708;53.124;23.190;2022-10-16T14:06:36;17.10;99.90
32215;DHT22;18708;53.124;23.190;2022-10-16T14:09:08;17.20;99.90
32215;DHT22;18708;53.124;23.190;2022-10-16T14:11:50;17.20;99.90
32215;DHT22;18708;53.124;23.190;2022-10-16T14:14:18;17.10;99.90
32215;DHT22;18708;53.124;23.190;2022-10-16T14:16:44;17.10;99.90
32215;DHT22;18708;53.124;23.190;2022-10-16T14:19:18;17.10;99.90
32215;DHT22;18708;53.124;23.190;2022-10-16T14:21:45;17.20;99.90
32215;DHT22;18708;53.124;23.190;2022-10-16T14:24:12;17.10;99.90
32215;DHT22;18708;53.124;23.190;2022-10-16T14:26:46;17.10;99.90
32215;DHT22;18708;53.124;23.190;2022-10-16T14:29:18;17.00;99.90
32215;DHT22;18708;53.124;23.190;2022-10-16T14:32:05;17.00;99.90
32215;DHT22;18708;53.124;23.190;2022-10-16T14:34:36;17.00;99.90
32215;DHT22;18708;53.124;23.190;2022-10-16T14:39:49;16.80;99.90
32215;DHT22;18708;53.124;23.190;2022-10-16T14:42:26;16.70;99.90
32215;DHT22;18708;53.124;23.190;2022-10-16T14:44:55;16.80;99.90
32215;DHT22;18708;53.124;23.190;2022-10-16T14:47:24;16.70;99.90
32215;DHT22;18708;53.124;23.190;2022-10-16T14:49:54;16.70;99.90
32215;DHT22;18708;53.124;23.190;2022-10-16T14:52:23;16.70;99.90
32215;DHT22;18708;53.124;23.190;2022-10-16T14:54:49;16.70;99.90
32215;DHT22;18708;53.124;23.190;2022-10-16T14:57:29;16.60;99.90
32215;DHT22;18708;53.124;23.190;2022-10-16T14:59:56;16.60;99.90
32215;DHT22;18708;53.124;23.190;2022-10-16T15:02:32;16.60;99.90
32215;DHT22;18708;53.124;23.190;2022-10-16T15:05:24;16.50;99.90
32215;DHT22;18708;53.124;23.190;2022-10-16T15:07:49;16.50;99.90
32215;DHT22;18708;53.124;23.190;2022-10-16T15:10:16;16.40;99.90
32215;DHT22;18708;53.124;23.190;2022-10-16T15:12:43;16.30;99.90
32215;DHT22;18708;53.124;23.190;2022-10-16T15:15:30;16.30;99.90
32215;DHT22;18708;53.124;23.190;2022-10-16T15:17:57;16.30;99.90
32215;DHT22;18708;53.124;23.190;2022-10-16T15:20:31;16.20;99.90
32215;DHT22;18708;53.124;23.190;2022-10-16T15:23:00;16.10;99.90
32215;DHT22;18708;53.124;23.190;2022-10-16T15:25:43;16.00;99.90
32215;DHT22;18708;53.124;23.190;2022-10-16T15:28:10;16.10;99.90
32215;DHT22;18708;53.124;23.190;2022-10-16T15:30:37;16.00;99.90
32215;DHT22;18708;53.124;23.190;2022-10-16T15:33:04;16.00;99.90
32215;DHT22;18708;53.124;23.190;2022-10-16T15:35:30;16.10;99.90
32215;DHT22;18708;53.124;23.190;2022-10-16T15:37:57;16.00;99.90
32215;DHT22;18708;53.124;23.190;2022-10-16T15:40:23;15.90;99.90
32215;DHT22;18708;53.124;23.190;2022-10-16T15:42:49;15.90;99.90
32215;DHT22;18708;53.124;23.190;2022-10-16T15:45:17;15.70;99.90
32215;DHT22;18708;53.124;23.190;2022-10-16T15:47:44;15.70;99.90
32215;DHT22;18708;53.124;23.190;2022-10-16T15:50:12;15.60;99.90
32215;DHT22;18708;53.124;23.190;2022-10-16T15:52:38;15.60;99.90
32215;DHT22;18708;53.124;23.190;2022-10-16T15:55:06;15.60;99.90
32215;DHT22;18708;53.124;23.190;2022-10-16T15:57:32;15.60;99.90
32215;DHT22;18708;53.124;23.190;2022-10-16T15:59:58;15.50;99.90
32215;DHT22;18708;53.124;23.190;2022-10-16T16:02:24;15.50;99.90
32215;DHT22;18708;53.124;23.190;2022-10-16T16:04:49;15.50;99.90
32215;DHT22;18708;53.124;23.190;2022-10-16T16:07:15;15.50;99.90
32215;DHT22;18708;53.124;23.190;2022-10-16T16:09:41;15.50;99.90
32215;DHT22;18708;53.124;23.190;2022-10-16T16:12:07;15.50;99.90
32215;DHT22;18708;53.124;23.190;2022-10-16T16:14:32;15.50;99.90
32215;DHT22;18708;53.124;23.190;2022-10-16T16:16:58;15.60;99.90
32215;DHT22;18708;53.124;23.190;2022-10-16T16:19:24;15.60;99.90
32215;DHT22;18708;53.124;23.190;2022-10-16T16:21:50;15.60;99.90
32215;DHT22;18708;53.124;23.190;2022-10-16T16:24:16;15.50;99.90
32215;DHT22;18708;53.124;23.190;2022-10-16T16:26:42;15.60;99.90
32215;DHT22;18708;53.124;23.190;2022-10-16T16:29:15;15.60;99.90
32215;DHT22;18708;53.124;23.190;2022-10-16T16:31:42;15.60;99.90
32215;DHT22;18708;53.124;23.190;2022-10-16T16:34:08;15.60;99.90
32215;DHT22;18708;53.124;23.190;2022-10-16T16:36:34;15.60;99.90
32215;DHT22;18708;53.124;23.190;2022-10-16T16:39:01;15.60;99.90
32215;DHT22;18708;53.124;23.190;2022-10-16T16:41:28;15.60;99.90
32215;DHT22;18708;53.124;23.190;2022-10-16T16:43:55;15.60;99.90
32215;DHT22;18708;53.124;23.190;2022-10-16T16:46:26;15.70;99.90
32215;DHT22;18708;53.124;23.190;2022-10-16T16:48:52;15.60;99.90
32215;DHT22;18708;53.124;23.190;2022-10-16T16:51:21;15.60;99.90
32215;DHT22;18708;53.124;23.190;2022-10-16T16:53:49;15.60;99.90
32215;DHT22;18708;53.124;23.190;2022-10-16T16:56:16;15.70;99.90
32215;DHT22;18708;53.124;23.190;2022-10-16T16:58:45;15.60;99.90
32215;DHT22;18708;53.124;23.190;2022-10-16T17:01:11;15.60;99.90
32215;DHT22;18708;53.124;23.190;2022-10-16T17:03:36;15.60;99.90
32215;DHT22;18708;53.124;23.190;2022-10-16T17:08:28;15.50;99.90
32215;DHT22;18708;53.124;23.190;2022-10-16T17:10:55;15.50;99.90
32215;DHT22;18708;53.124;23.190;2022-10-16T17:13:26;15.50;99.90
32215;DHT22;18708;53.124;23.190;2022-10-16T17:15:52;15.50;99.90
32215;DHT22;18708;53.124;23.190;2022-10-16T17:18:20;15.50;99.90
32215;DHT22;18708;53.124;23.190;2022-10-16T17:20:47;15.50;99.90
32215;DHT22;18708;53.124;23.190;2022-10-16T17:23:13;15.60;99.90
32215;DHT22;18708;53.124;23.190;2022-10-16T17:25:40;15.60;99.90
32215;DHT22;18708;53.124;23.190;2022-10-16T17:28:07;15.60;99.90
32215;DHT22;18708;53.124;23.190;2022-10-16T17:30:33;15.60;99.90
32215;DHT22;18708;53.124;23.190;2022-10-16T17:33:00;15.60;99.90
32215;DHT22;18708;53.124;23.190;2022-10-16T17:35:26;15.60;99.90
32215;DHT22;18708;53.124;23.190;2022-10-16T17:37:52;15.70;99.90
32215;DHT22;18708;53.124;23.190;2022-10-16T17:40:18;15.70;99.90